createdAt,value
2019-02-14T02:58:03.279Z,53.45
2019-02-14T03:00:32.536Z,53.53
2019-02-14T03:03:01.741Z,53.57
2019-02-14T03:05:31.008Z,53.66
2019-02-14T03:08:00.232Z,53.69
2019-02-14T03:10:29.491Z,53.62
2019-02-14T03:12:58.842Z,53.61
2019-02-14T03:15:28.255Z,53.60
2019-02-14T03:17:57.688Z,53.64
2019-02-14T03:20:26.923Z,53.74
2019-02-14T03:22:56.253Z,53.78
2019-02-14T03:25:25.526Z,53.79
2019-02-14T03:27:54.813Z,53.82
2019-02-14T03:30:24.227Z,53.88
2019-02-14T03:32:53.452Z,53.82
2019-02-14T03:35:22.625Z,53.85
2019-02-14T03:37:51.836Z,53.95
2019-02-14T03:40:21.125Z,54.03
2019-02-14T03:42:50.542Z,54.05
2019-02-14T03:45:19.827Z,54.07
2019-02-14T03:47:49.065Z,54.17
2019-02-14T03:50:18.355Z,54.17
2019-02-14T03:52:47.695Z,54.15
2019-02-14T03:55:16.938Z,54.17
2019-02-14T03:57:46.197Z,54.08
2019-02-14T04:00:15.930Z,54.11
2019-02-14T04:02:45.149Z,54.11
2019-02-14T04:05:14.345Z,54.16
2019-02-14T04:07:43.615Z,54.19
2019-02-14T04:10:13.123Z,54.23
2019-02-14T04:12:42.351Z,54.28
2019-02-14T04:15:13.298Z,54.28
2019-02-14T04:17:42.602Z,54.34
2019-02-14T04:20:11.785Z,54.43
2019-02-14T04:22:41.006Z,54.44
2019-02-14T04:25:10.356Z,54.52
2019-02-14T04:27:39.635Z,54.54
2019-02-14T04:30:09.987Z,54.55
2019-02-14T04:32:39.270Z,54.57
2019-02-14T04:35:08.642Z,54.62
2019-02-14T04:37:37.956Z,54.69
2019-02-14T04:40:08.635Z,54.74
2019-02-14T04:42:38.057Z,54.79
2019-02-14T04:45:07.340Z,54.81
2019-02-14T04:47:36.504Z,54.84
2019-02-14T04:50:06.070Z,54.84
2019-02-14T04:52:35.261Z,54.92
2019-02-14T04:55:04.663Z,54.94
2019-02-14T04:57:33.899Z,54.96
2019-02-14T05:00:03.122Z,54.99
2019-02-14T05:02:32.436Z,55.07
2019-02-14T05:05:01.652Z,55.06
2019-02-14T05:07:30.998Z,55.06
2019-02-14T05:10:00.403Z,55.18
2019-02-14T05:12:39.609Z,55.24
2019-02-14T05:15:08.901Z,55.32
2019-02-14T05:17:38.297Z,55.26
2019-02-14T05:20:08.432Z,55.28
2019-02-14T05:22:37.915Z,55.28
2019-02-14T05:25:07.512Z,55.30
2019-02-14T05:27:36.672Z,55.30
2019-02-14T05:30:06.128Z,55.35
2019-02-14T05:32:35.310Z,55.40
2019-02-14T05:35:04.608Z,55.41
2019-02-14T05:37:33.873Z,55.39
2019-02-14T05:40:03.054Z,55.47
2019-02-14T05:42:32.171Z,55.35
2019-02-14T05:45:01.240Z,55.37
2019-02-14T05:47:30.334Z,55.49
2019-02-14T05:49:59.432Z,55.47
2019-02-14T05:52:28.690Z,55.49
2019-02-14T05:54:57.720Z,55.56
2019-02-14T05:57:27.415Z,55.57
2019-02-14T05:59:56.737Z,55.60
2019-02-14T06:02:25.837Z,55.61
2019-02-14T06:04:54.976Z,55.66
2019-02-14T06:07:24.102Z,55.58
2019-02-14T06:09:53.187Z,55.58
2019-02-14T06:12:22.292Z,55.57
2019-02-14T06:14:51.574Z,55.77
2019-02-14T06:17:20.684Z,55.82
2019-02-14T06:19:49.781Z,55.83
2019-02-14T06:22:18.920Z,55.86
2019-02-14T06:24:48.029Z,55.91
2019-02-14T06:27:17.180Z,55.93
2019-02-14T06:29:46.320Z,55.96
2019-02-14T06:32:15.389Z,55.94
2019-02-14T06:34:44.612Z,55.96
2019-02-14T06:37:13.725Z,55.98
2019-02-14T06:39:42.904Z,56.08
2019-02-14T06:42:12.840Z,56.07
2019-02-14T06:44:41.919Z,56.03
2019-02-14T06:47:11.248Z,55.92
2019-02-14T06:49:40.413Z,55.99
2019-02-14T06:52:09.763Z,55.99
2019-02-14T06:54:39.018Z,56.02
2019-02-14T06:57:08.236Z,56.02
2019-02-14T06:59:37.436Z,56.09
2019-02-14T07:02:08.445Z,56.08
2019-02-14T07:04:37.671Z,56.08
2019-02-14T07:07:06.874Z,56.08
2019-02-14T07:09:36.098Z,56.00
2019-02-14T07:12:05.296Z,55.98
2019-02-14T07:14:34.814Z,55.94
2019-02-14T07:17:03.964Z,55.90
2019-02-14T07:19:33.189Z,55.77
2019-02-14T07:22:02.619Z,55.79
2019-02-14T07:24:32.071Z,55.77
2019-02-14T07:27:01.300Z,55.70
2019-02-14T07:29:30.500Z,55.66
2019-02-14T07:31:59.674Z,55.60
2019-02-14T07:34:28.995Z,55.49
2019-02-14T07:36:58.293Z,55.67
2019-02-14T07:39:28.150Z,55.66
2019-02-14T07:41:57.642Z,54.58
2019-02-14T07:44:26.986Z,52.89
2019-02-14T07:46:56.134Z,51.25
2019-02-14T07:49:37.471Z,49.64
2019-02-14T07:52:07.147Z,47.71
2019-02-14T07:54:39.729Z,45.80
2019-02-14T08:13:14.418Z,37.11
2019-02-14T08:15:43.620Z,36.44
2019-02-14T08:18:13.333Z,35.29
2019-02-14T08:20:42.973Z,34.28
2019-02-14T08:23:14.278Z,32.89
2019-02-14T08:25:43.830Z,31.79
2019-02-14T08:28:17.529Z,30.65
2019-02-14T08:30:46.812Z,29.88
2019-02-14T08:33:24.647Z,28.73
2019-02-14T08:35:53.956Z,28.34
2019-02-14T08:38:26.236Z,27.58
2019-02-14T08:40:55.458Z,27.14
2019-02-14T08:43:27.787Z,26.81
2019-02-14T08:46:04.577Z,26.76
2019-02-14T08:53:15.506Z,25.80
2019-02-14T08:56:11.611Z,24.82
2019-02-14T09:01:54.846Z,23.18
2019-02-14T09:04:24.223Z,22.71
2019-02-14T09:06:53.505Z,22.03
2019-02-14T09:09:22.643Z,21.31
2019-02-14T09:11:51.781Z,20.66
2019-02-14T09:17:48.913Z,19.75
2019-02-14T09:20:18.102Z,19.33
2019-02-14T09:22:47.138Z,19.31
2019-02-14T09:25:16.392Z,18.93
2019-02-14T09:27:45.506Z,18.71
2019-02-14T09:30:14.797Z,18.39
2019-02-14T09:32:43.937Z,18.08
2019-02-14T09:35:13.185Z,17.49
2019-02-14T09:37:42.276Z,17.01
2019-02-14T09:40:12.262Z,16.77
2019-02-14T09:42:42.137Z,16.29
2019-02-14T09:45:11.628Z,16.15
2019-02-14T09:47:40.640Z,16.38
2019-02-14T09:50:10.589Z,16.99
2019-02-14T09:52:39.825Z,17.64
2019-02-14T09:55:09.266Z,18.04
2019-02-14T09:57:38.366Z,17.88
2019-02-14T10:00:09.863Z,17.20
2019-02-14T10:02:39.417Z,16.65
2019-02-14T10:05:08.952Z,16.25
2019-02-14T10:07:38.192Z,16.29
2019-02-14T10:10:09.269Z,16.35
2019-02-14T10:12:38.570Z,16.39
2019-02-14T10:15:08.190Z,16.04
2019-02-14T10:17:37.273Z,15.47
2019-02-14T10:20:07.663Z,15.82
2019-02-14T10:22:36.820Z,16.12
2019-02-14T10:25:06.943Z,16.64
2019-02-14T10:27:36.169Z,16.82
2019-02-14T10:30:06.862Z,16.37
2019-02-14T10:32:35.965Z,15.92
2019-02-14T10:35:05.058Z,15.44
2019-02-14T10:37:34.147Z,14.60
2019-02-14T10:40:03.207Z,14.29
2019-02-14T10:42:32.531Z,14.89
2019-02-14T10:45:01.653Z,14.78
2019-02-14T10:47:30.703Z,13.52
2019-02-14T10:49:59.824Z,12.56
2019-02-14T10:52:28.935Z,11.65
2019-02-14T10:54:58.108Z,11.41
2019-02-14T10:57:27.201Z,11.04
2019-02-14T10:59:56.316Z,9.97
2019-02-14T11:02:25.440Z,9.34
2019-02-14T11:04:54.645Z,8.49
2019-02-14T11:07:23.745Z,7.89
2019-02-14T11:09:52.831Z,7.45
2019-02-14T11:12:21.967Z,6.67
2019-02-14T11:14:50.983Z,6.03
2019-02-14T11:17:20.072Z,5.91
2019-02-14T11:19:49.155Z,5.69
2019-02-14T11:22:18.343Z,5.40
2019-02-14T11:24:47.639Z,5.53
2019-02-14T11:27:16.804Z,5.58
2019-02-14T11:29:45.894Z,5.57
2019-02-14T11:32:15.031Z,5.36
2019-02-14T11:34:44.107Z,5.19
2019-02-14T11:37:13.262Z,5.08
2019-02-14T11:39:42.402Z,5.15
2019-02-14T11:42:11.492Z,5.09
2019-02-14T11:44:40.493Z,5.00
2019-02-14T11:47:09.555Z,4.83
2019-02-14T11:49:38.590Z,4.57
2019-02-14T11:52:07.679Z,4.70
2019-02-14T11:54:36.776Z,4.46
2019-02-14T11:57:10.540Z,4.62
2019-02-14T11:59:40.578Z,4.42
2019-02-14T12:02:09.660Z,4.17
2019-02-14T12:04:38.662Z,4.04
2019-02-14T12:07:07.790Z,4.68
2019-02-14T12:09:36.933Z,5.08
2019-02-14T12:12:06.101Z,4.70
2019-02-14T12:14:35.231Z,4.22
2019-02-14T12:17:04.836Z,3.94
2019-02-14T12:19:33.953Z,3.52
2019-02-14T12:22:03.028Z,3.30
2019-02-14T12:24:32.109Z,3.12
2019-02-14T12:27:01.240Z,2.83
2019-02-14T12:29:30.379Z,2.57
2019-02-14T12:31:59.430Z,2.51
2019-02-14T12:34:28.507Z,2.50
2019-02-14T12:36:57.600Z,2.55
2019-02-14T12:39:26.738Z,2.68
2019-02-14T12:41:55.803Z,2.93
2019-02-14T12:44:24.765Z,2.69
2019-02-14T12:46:53.842Z,2.72
2019-02-14T12:49:22.887Z,3.04
2019-02-14T12:51:51.943Z,3.34
2019-02-14T12:54:21.035Z,3.90
2019-02-14T12:56:50.167Z,4.69
2019-02-14T12:59:19.234Z,5.52
2019-02-14T13:01:48.565Z,5.84
2019-02-14T13:04:17.812Z,6.50
2019-02-14T13:06:47.085Z,7.18
2019-02-14T13:09:20.040Z,7.79
2019-02-14T13:11:47.005Z,8.27
2019-02-14T13:14:16.048Z,8.72
2019-02-14T13:16:45.226Z,9.21
2019-02-14T13:19:14.283Z,9.68
2019-02-14T13:21:43.341Z,10.21
2019-02-14T13:24:12.491Z,10.18
2019-02-14T13:26:41.581Z,10.40
2019-02-14T13:29:10.622Z,10.97
2019-02-14T13:31:39.686Z,10.81
2019-02-14T13:34:08.731Z,10.91
2019-02-14T13:36:37.909Z,11.23
2019-02-14T13:39:08.341Z,11.46
2019-02-14T13:41:37.441Z,11.63
2019-02-14T13:44:06.509Z,11.61
2019-02-14T13:46:35.529Z,11.50
2019-02-14T13:49:04.729Z,11.76
2019-02-14T13:51:34.839Z,11.89
2019-02-14T13:54:03.916Z,11.91
2019-02-14T13:56:33.336Z,11.88
2019-02-14T13:59:02.467Z,12.05
2019-02-14T14:01:33.871Z,12.36
2019-02-14T14:04:02.922Z,12.59
2019-02-14T14:06:32.012Z,12.62
2019-02-14T14:09:01.109Z,12.56
2019-02-14T14:11:30.194Z,12.70
2019-02-14T14:13:59.290Z,12.76
2019-02-14T14:16:28.558Z,12.78
2019-02-14T14:19:05.971Z,12.75
2019-02-14T14:21:28.499Z,13.01
2019-02-14T14:23:57.668Z,12.96
2019-02-14T14:26:26.680Z,13.08
2019-02-14T14:28:55.793Z,13.06
2019-02-14T14:31:24.856Z,13.33
2019-02-14T14:33:53.959Z,13.24
2019-02-14T14:36:23.036Z,13.31
2019-02-14T14:38:52.056Z,13.34
2019-02-14T14:41:21.168Z,13.34
2019-02-14T14:44:18.374Z,13.55
2019-02-14T14:46:57.539Z,13.71
2019-02-14T14:49:26.639Z,13.72
2019-02-14T14:51:55.734Z,13.65
2019-02-14T14:54:24.822Z,13.76
2019-02-14T14:56:53.839Z,13.62
2019-02-14T14:59:22.935Z,13.89
2019-02-14T15:01:52.070Z,13.83
2019-02-14T15:04:21.244Z,13.80
2019-02-14T15:06:50.255Z,13.83
2019-02-14T15:09:19.287Z,13.75
2019-02-14T15:11:48.318Z,13.54
2019-02-14T15:14:17.481Z,13.35
2019-02-14T15:16:46.565Z,13.46
2019-02-14T15:19:15.695Z,13.63
2019-02-14T15:21:44.747Z,13.86
2019-02-14T15:24:13.956Z,13.90
2019-02-14T15:26:43.103Z,14.44
2019-02-14T15:29:12.202Z,14.62
2019-02-14T15:31:41.251Z,15.20
2019-02-14T15:34:10.379Z,15.27
2019-02-14T15:36:39.719Z,15.72
2019-02-14T15:39:08.922Z,15.70
2019-02-14T15:41:38.078Z,15.97
2019-02-14T15:44:07.579Z,15.78
2019-02-14T15:46:40.051Z,15.73
2019-02-14T15:49:09.206Z,15.50
2019-02-14T15:51:41.982Z,15.49
2019-02-14T15:54:11.944Z,15.78
2019-02-14T15:56:41.026Z,15.48
2019-02-14T15:59:10.074Z,15.59
2019-02-14T16:01:39.686Z,15.93
2019-02-14T16:04:09.433Z,16.46
2019-02-14T16:06:38.737Z,16.75
2019-02-14T16:09:07.872Z,17.10
2019-02-14T16:11:38.731Z,17.36
2019-02-14T16:14:07.921Z,17.59
2019-02-14T16:16:36.944Z,17.62
2019-02-14T16:19:06.139Z,18.03
2019-02-14T16:21:35.192Z,19.11
2019-02-14T16:24:04.308Z,19.50
2019-02-14T16:26:35.288Z,19.86
2019-02-14T16:29:04.243Z,20.07
2019-02-14T16:31:33.314Z,20.51
2019-02-14T16:34:02.381Z,20.66
2019-02-14T16:36:32.632Z,20.76
2019-02-14T16:39:01.902Z,21.73
2019-02-14T16:41:30.953Z,21.94
2019-02-14T16:44:00.297Z,22.49
2019-02-14T16:46:29.328Z,23.23
2019-02-14T16:48:58.465Z,23.79
2019-02-14T16:51:27.538Z,24.35
2019-02-14T16:53:56.599Z,25.01
2019-02-14T16:56:26.110Z,25.35
2019-02-14T16:58:55.461Z,25.96
2019-02-14T17:01:24.514Z,26.17
2019-02-14T17:03:53.735Z,26.41
2019-02-14T17:06:22.785Z,26.40
2019-02-14T17:08:51.868Z,26.57
2019-02-14T17:11:20.974Z,27.19
2019-02-14T17:13:50.173Z,27.47
2019-02-14T17:16:19.247Z,27.02
2019-02-14T17:18:48.279Z,27.76
2019-02-14T17:21:17.542Z,28.13
2019-02-14T17:23:46.659Z,28.53
2019-02-14T17:26:15.797Z,28.74
2019-02-14T17:28:44.809Z,28.91
2019-02-14T17:31:13.885Z,29.14
2019-02-14T17:33:46.710Z,29.06
2019-02-14T17:36:15.997Z,29.37
2019-02-14T17:38:45.096Z,29.75
2019-02-14T17:41:14.700Z,29.94
2019-02-14T17:43:43.773Z,30.09
2019-02-14T17:46:12.849Z,30.46
2019-02-14T17:48:41.918Z,30.78
2019-02-14T17:51:11.803Z,31.10
2019-02-14T17:53:40.933Z,31.61
2019-02-14T17:56:10.019Z,31.91
2019-02-14T17:58:39.169Z,31.93
2019-02-14T18:01:08.246Z,32.25
2019-02-14T18:03:37.342Z,32.11
2019-02-14T18:06:08.498Z,32.23
2019-02-14T18:08:37.390Z,31.91
2019-02-14T18:11:06.499Z,32.31
2019-02-14T18:13:35.721Z,32.49
2019-02-14T18:16:04.944Z,32.59
2019-02-14T18:18:34.062Z,32.74
2019-02-14T18:21:03.239Z,33.12
2019-02-14T18:23:32.429Z,33.21
2019-02-14T18:26:01.553Z,33.36
2019-02-14T18:28:30.754Z,33.61
2019-02-14T18:30:59.897Z,33.74
2019-02-14T18:33:28.988Z,33.71
2019-02-14T18:35:58.179Z,33.85
2019-02-14T18:38:27.313Z,33.99
2019-02-14T18:41:03.857Z,33.95
2019-02-14T18:43:27.431Z,34.24
2019-02-14T18:45:56.582Z,34.36
2019-02-14T18:48:25.750Z,34.30
2019-02-14T18:50:55.023Z,34.17
2019-02-14T18:53:24.117Z,35.74
2019-02-14T18:55:53.348Z,35.69
2019-02-14T18:58:26.443Z,37.35
2019-02-14T19:00:53.498Z,36.59
2019-02-14T19:03:22.635Z,37.02
2019-02-14T19:05:52.033Z,36.38
2019-02-14T19:08:21.259Z,37.93
2019-02-14T19:10:50.316Z,36.73
2019-02-14T19:13:19.487Z,36.43
2019-02-14T19:15:49.473Z,36.67
2019-02-14T19:18:18.542Z,36.78
2019-02-14T19:20:47.785Z,36.89
2019-02-14T19:23:24.074Z,36.56
2019-02-14T19:25:47.819Z,36.96
2019-02-14T19:28:17.014Z,36.43
2019-02-14T19:30:46.182Z,36.81
2019-02-14T19:33:15.294Z,36.37
2019-02-14T19:35:44.392Z,36.41
2019-02-14T19:38:13.509Z,36.41
2019-02-14T19:40:42.590Z,36.34
2019-02-14T19:43:11.731Z,36.34
2019-02-14T19:45:40.777Z,36.01
2019-02-14T19:48:09.875Z,36.06
2019-02-14T19:50:38.976Z,36.26
2019-02-14T19:53:11.112Z,36.49
2019-02-14T19:55:40.176Z,36.57
2019-02-14T19:58:09.230Z,36.82
2019-02-14T20:00:38.293Z,36.86
2019-02-14T20:03:07.332Z,36.88
2019-02-14T20:05:36.354Z,36.92
2019-02-14T20:08:05.487Z,36.97
2019-02-14T20:10:34.589Z,37.11
2019-02-14T20:13:03.675Z,37.17
2019-02-14T20:15:37.387Z,37.36
2019-02-14T20:18:03.601Z,37.89
2019-02-14T20:20:32.672Z,37.88
2019-02-14T20:23:01.740Z,37.94
2019-02-14T20:25:30.816Z,37.87
2019-02-14T20:27:59.908Z,37.92
2019-02-14T20:30:28.959Z,38.10
2019-02-14T20:33:04.511Z,38.23
2019-02-14T20:35:28.862Z,38.35
2019-02-14T20:37:57.990Z,38.55
2019-02-14T20:40:27.066Z,38.53
2019-02-14T20:42:56.128Z,38.70
2019-02-14T20:45:25.208Z,38.56
2019-02-14T20:47:57.006Z,38.76
2019-02-14T20:50:25.065Z,38.86
2019-02-14T20:52:54.149Z,39.01
2019-02-14T20:55:23.194Z,39.15
2019-02-14T20:57:52.280Z,39.08
2019-02-14T21:00:32.579Z,39.12
2019-02-14T21:03:01.734Z,39.26
2019-02-14T21:05:31.054Z,39.34
2019-02-14T21:08:00.196Z,39.59
2019-02-14T21:10:29.284Z,39.46
2019-02-14T21:12:58.650Z,39.67
2019-02-14T21:15:27.909Z,39.75
2019-02-14T21:18:04.959Z,39.96
2019-02-14T21:20:34.275Z,39.96
2019-02-14T21:23:03.460Z,39.87
2019-02-14T21:25:33.082Z,39.90
2019-02-14T21:28:02.206Z,39.93
2019-02-14T21:30:35.401Z,40.07
2019-02-14T21:33:02.619Z,40.10
2019-02-14T21:35:32.066Z,40.12
2019-02-14T21:38:01.232Z,40.17
2019-02-14T21:40:30.528Z,40.14
2019-02-14T21:42:59.888Z,40.21
2019-02-14T21:45:29.454Z,40.37
2019-02-14T21:47:58.759Z,40.38
2019-02-14T21:50:28.155Z,40.50
2019-02-14T21:52:57.505Z,40.45
2019-02-14T21:55:26.665Z,40.46
2019-02-14T21:57:56.004Z,40.40
2019-02-14T22:00:25.473Z,40.31
2019-02-14T22:02:54.690Z,40.38
2019-02-14T22:05:26.123Z,40.31
2019-02-14T22:07:55.229Z,40.38
2019-02-14T22:10:24.393Z,40.42
2019-02-14T22:12:53.898Z,40.42
2019-02-14T22:15:23.069Z,40.47
2019-02-14T22:17:52.410Z,40.60
2019-02-14T22:20:21.783Z,40.58
2019-02-14T22:22:51.057Z,40.64
2019-02-14T22:25:20.723Z,40.62
2019-02-14T22:27:49.929Z,40.69
2019-02-14T22:30:19.224Z,40.70
2019-02-14T22:32:48.519Z,40.71
2019-02-14T22:35:17.931Z,40.94
2019-02-14T22:37:47.216Z,40.98
2019-02-14T22:40:16.411Z,41.07
2019-02-14T22:42:47.530Z,40.92
2019-02-14T22:45:16.805Z,40.98
2019-02-14T22:47:45.947Z,40.94
2019-02-14T22:50:15.341Z,41.04
2019-02-14T22:52:44.658Z,41.11
2019-02-14T22:55:13.895Z,41.06
2019-02-14T22:57:43.001Z,41.14
2019-02-14T23:00:34.295Z,41.35
2019-02-14T23:03:03.660Z,41.36
2019-02-14T23:05:33.196Z,41.18
2019-02-14T23:08:03.614Z,41.10
2019-02-14T23:10:32.880Z,40.99
2019-02-14T23:13:02.210Z,41.01
2019-02-14T23:15:31.383Z,40.87
2019-02-14T23:18:00.668Z,41.01
2019-02-14T23:20:31.355Z,41.20
2019-02-14T23:23:00.723Z,41.17
2019-02-14T23:25:29.931Z,41.34
2019-02-14T23:32:46.350Z,41.51
2019-02-14T23:35:49.009Z,41.48
2019-02-14T23:38:36.450Z,41.43
2019-02-14T23:41:46.123Z,41.51
